sensor_id;sensor_type;location;lat;lon;timestamp;pressure;altitude;pressure_sealevel;temperature;humidity
42337;BME280;27987;51.468;5.464;2022-08-25T00:01:09;101442.16;;;23.80;79.76
42337;BME280;27987;51.468;5.464;2022-08-25T00:03:36;101444.81;;;23.80;79.97
42337;BME280;27987;51.468;5.464;2022-08-25T00:06:04;101441.59;;;23.76;80.60
42337;BME280;27987;51.468;5.464;2022-08-25T00:08:31;101449.56;;;23.76;80.30
42337;BME280;27987;51.468;5.464;2022-08-25T00:10:59;101442.75;;;23.74;79.96
42337;BME280;27987;51.468;5.464;2022-08-25T00:13:28;101442.81;;;23.64;80.59
42337;BME280;27987;51.468;5.464;2022-08-25T00:15:55;101442.69;;;23.66;80.33
42337;BME280;27987;51.468;5.464;2022-08-25T00:18:21;101447.84;;;23.67;80.96
42337;BME280;27987;51.468;5.464;2022-08-25T00:20:48;101443.97;;;23.62;80.47
42337;BME280;27987;51.468;5.464;2022-08-25T00:23:15;101443.06;;;23.53;80.92
42337;BME280;27987;51.468;5.464;2022-08-25T00:25:42;101437.69;;;23.45;82.23
42337;BME280;27987;51.468;5.464;2022-08-25T00:28:09;101436.19;;;23.42;81.48
42337;BME280;27987;51.468;5.464;2022-08-25T00:30:37;101443.31;;;23.42;81.37
42337;BME280;27987;51.468;5.464;2022-08-25T00:33:04;101450.56;;;23.39;81.76
42337;BME280;27987;51.468;5.464;2022-08-25T00:35:31;101448.00;;;23.30;82.50
42337;BME280;27987;51.468;5.464;2022-08-25T00:38:00;101440.19;;;23.28;82.67
42337;BME280;27987;51.468;5.464;2022-08-25T00:40:28;101446.25;;;23.21;82.51
42337;BME280;27987;51.468;5.464;2022-08-25T00:42:55;101452.53;;;23.19;82.91
42337;BME280;27987;51.468;5.464;2022-08-25T00:45:22;101451.31;;;23.14;82.91
42337;BME280;27987;51.468;5.464;2022-08-25T00:47:50;101450.78;;;23.10;82.76
42337;BME280;27987;51.468;5.464;2022-08-25T00:50:17;101452.75;;;23.08;83.23
42337;BME280;27987;51.468;5.464;2022-08-25T00:52:46;101448.75;;;23.04;83.53
42337;BME280;27987;51.468;5.464;2022-08-25T00:55:15;101441.03;;;23.01;83.31
42337;BME280;27987;51.468;5.464;2022-08-25T00:57:46;101452.09;;;22.96;83.52
42337;BME280;27987;51.468;5.464;2022-08-25T01:00:16;101449.47;;;22.96;83.70
42337;BME280;27987;51.468;5.464;2022-08-25T01:02:44;101450.06;;;22.90;84.34
42337;BME280;27987;51.468;5.464;2022-08-25T01:05:13;101443.00;;;22.81;84.33
42337;BME280;27987;51.468;5.464;2022-08-25T01:07:40;101451.50;;;22.75;84.61
42337;BME280;27987;51.468;5.464;2022-08-25T01:10:09;101445.41;;;22.74;84.85
42337;BME280;27987;51.468;5.464;2022-08-25T01:12:36;101439.56;;;22.71;84.64
42337;BME280;27987;51.468;5.464;2022-08-25T01:15:05;101444.31;;;22.67;84.44
42337;BME280;27987;51.468;5.464;2022-08-25T01:17:34;101440.44;;;22.61;84.80
42337;BME280;27987;51.468;5.464;2022-08-25T01:20:01;101450.50;;;22.58;84.69
42337;BME280;27987;51.468;5.464;2022-08-25T01:22:29;101443.81;;;22.54;85.01
42337;BME280;27987;51.468;5.464;2022-08-25T01:24:58;101445.94;;;22.50;85.21
42337;BME280;27987;51.468;5.464;2022-08-25T01:27:28;101440.41;;;22.44;85.21
42337;BME280;27987;51.468;5.464;2022-08-25T01:29:55;101442.31;;;22.41;84.70
42337;BME280;27987;51.468;5.464;2022-08-25T01:32:22;101441.63;;;22.39;84.65
42337;BME280;27987;51.468;5.464;2022-08-25T01:34:49;101443.38;;;22.31;84.77
42337;BME280;27987;51.468;5.464;2022-08-25T01:37:16;101449.91;;;22.27;85.10
42337;BME280;27987;51.468;5.464;2022-08-25T01:39:45;101446.16;;;22.29;82.64
42337;BME280;27987;51.468;5.464;2022-08-25T01:42:18;101442.31;;;22.41;82.39
42337;BME280;27987;51.468;5.464;2022-08-25T01:44:49;101444.69;;;22.45;81.79
42337;BME280;27987;51.468;5.464;2022-08-25T01:47:15;101445.53;;;22.45;82.06
42337;BME280;27987;51.468;5.464;2022-08-25T01:49:42;101441.34;;;22.42;81.79
42337;BME280;27987;51.468;5.464;2022-08-25T01:52:11;101451.41;;;22.39;81.71
42337;BME280;27987;51.468;5.464;2022-08-25T01:54:40;101444.28;;;22.39;81.40
42337;BME280;27987;51.468;5.464;2022-08-25T01:57:08;101445.44;;;22.37;80.52
42337;BME280;27987;51.468;5.464;2022-08-25T01:59:35;101442.63;;;22.38;80.09
42337;BME280;27987;51.468;5.464;2022-08-25T02:02:03;101447.06;;;22.38;80.10
42337;BME280;27987;51.468;5.464;2022-08-25T02:04:29;101447.06;;;22.38;80.25
42337;BME280;27987;51.468;5.464;2022-08-25T02:06:57;101445.16;;;22.30;79.84
42337;BME280;27987;51.468;5.464;2022-08-25T02:09:24;101445.28;;;22.29;79.40
42337;BME280;27987;51.468;5.464;2022-08-25T02:11:51;101444.34;;;22.30;79.01
42337;BME280;27987;51.468;5.464;2022-08-25T02:14:19;101446.44;;;22.26;79.49
42337;BME280;27987;51.468;5.464;2022-08-25T02:16:48;101447.53;;;22.23;79.25
42337;BME280;27987;51.468;5.464;2022-08-25T02:19:16;101444.47;;;22.18;79.07
42337;BME280;27987;51.468;5.464;2022-08-25T02:21:43;101440.16;;;22.17;79.41
42337;BME280;27987;51.468;5.464;2022-08-25T02:24:10;101443.38;;;22.11;79.71
42337;BME280;27987;51.468;5.464;2022-08-25T02:26:37;101438.81;;;22.03;79.30
42337;BME280;27987;51.468;5.464;2022-08-25T02:29:05;101445.75;;;22.04;79.29
42337;BME280;27987;51.468;5.464;2022-08-25T02:31:34;101446.75;;;22.03;79.03
42337;BME280;27987;51.468;5.464;2022-08-25T02:34:01;101444.22;;;22.02;78.60
42337;BME280;27987;51.468;5.464;2022-08-25T02:36:28;101435.59;;;22.00;78.61
42337;BME280;27987;51.468;5.464;2022-08-25T02:38:56;101437.56;;;21.98;78.16
42337;BME280;27987;51.468;5.464;2022-08-25T02:41:24;101416.66;;;21.95;76.37
42337;BME280;27987;51.468;5.464;2022-08-25T02:43:51;101431.28;;;21.99;77.07
42337;BME280;27987;51.468;5.464;2022-08-25T02:46:20;101431.69;;;22.04;76.40
42337;BME280;27987;51.468;5.464;2022-08-25T02:48:50;101437.13;;;22.02;76.13
42337;BME280;27987;51.468;5.464;2022-08-25T02:51:18;101432.28;;;21.98;76.08
42337;BME280;27987;51.468;5.464;2022-08-25T02:53:45;101434.91;;;21.98;75.52
42337;BME280;27987;51.468;5.464;2022-08-25T02:56:13;101431.28;;;21.99;75.90
42337;BME280;27987;51.468;5.464;2022-08-25T02:58:41;101424.19;;;21.99;75.01
42337;BME280;27987;51.468;5.464;2022-08-25T03:01:08;101423.66;;;21.96;75.64
42337;BME280;27987;51.468;5.464;2022-08-25T03:03:36;101421.72;;;21.88;75.74
42337;BME280;27987;51.468;5.464;2022-08-25T03:06:06;101425.75;;;21.92;75.27
42337;BME280;27987;51.468;5.464;2022-08-25T03:08:33;101415.72;;;21.76;75.94
42337;BME280;27987;51.468;5.464;2022-08-25T03:11:00;101410.31;;;21.78;75.93
42337;BME280;27987;51.468;5.464;2022-08-25T03:13:27;101418.78;;;21.81;75.79
42337;BME280;27987;51.468;5.464;2022-08-25T03:15:54;101414.63;;;21.79;75.54
42337;BME280;27987;51.468;5.464;2022-08-25T03:18:20;101418.25;;;21.78;75.50
42337;BME280;27987;51.468;5.464;2022-08-25T03:20:47;101413.09;;;21.76;75.07
42337;BME280;27987;51.468;5.464;2022-08-25T03:23:16;101408.50;;;21.69;74.68
42337;BME280;27987;51.468;5.464;2022-08-25T03:25:43;101412.81;;;21.79;73.87
42337;BME280;27987;51.468;5.464;2022-08-25T03:28:27;101408.50;;;21.78;74.00
42337;BME280;27987;51.468;5.464;2022-08-25T03:30:57;101399.19;;;21.74;74.39
42337;BME280;27987;51.468;5.464;2022-08-25T03:33:24;101397.78;;;21.70;74.53
42337;BME280;27987;51.468;5.464;2022-08-25T03:35:51;101402.81;;;21.73;74.93
42337;BME280;27987;51.468;5.464;2022-08-25T03:38:20;101399.47;;;21.61;74.55
42337;BME280;27987;51.468;5.464;2022-08-25T03:40:47;101399.88;;;21.67;74.24
42337;BME280;27987;51.468;5.464;2022-08-25T03:43:14;101402.66;;;21.65;74.24
42337;BME280;27987;51.468;5.464;2022-08-25T03:45:42;101396.97;;;21.60;74.00
42337;BME280;27987;51.468;5.464;2022-08-25T03:48:09;101396.97;;;21.60;73.92
42337;BME280;27987;51.468;5.464;2022-08-25T03:50:36;101390.44;;;21.54;73.55
42337;BME280;27987;51.468;5.464;2022-08-25T03:53:03;101387.66;;;21.56;73.22
42337;BME280;27987;51.468;5.464;2022-08-25T03:55:31;101392.38;;;21.52;73.23
42337;BME280;27987;51.468;5.464;2022-08-25T03:57:57;101386.25;;;21.52;72.47
42337;BME280;27987;51.468;5.464;2022-08-25T04:00:24;101380.84;;;21.53;72.01
42337;BME280;27987;51.468;5.464;2022-08-25T04:02:51;101381.66;;;21.54;71.80
42337;BME280;27987;51.468;5.464;2022-08-25T04:05:18;101383.50;;;21.53;72.39
42337;BME280;27987;51.468;5.464;2022-08-25T04:07:45;101375.28;;;21.46;71.99
42337;BME280;27987;51.468;5.464;2022-08-25T04:10:12;101370.94;;;21.36;72.37
42337;BME280;27987;51.468;5.464;2022-08-25T04:12:43;101369.69;;;21.40;71.64
42337;BME280;27987;51.468;5.464;2022-08-25T04:15:10;101381.66;;;21.44;72.02
42337;BME280;27987;51.468;5.464;2022-08-25T04:17:37;101384.28;;;21.44;72.01
42337;BME280;27987;51.468;5.464;2022-08-25T04:20:09;101383.06;;;21.29;71.82
42337;BME280;27987;51.468;5.464;2022-08-25T04:22:36;101386.66;;;21.37;71.75
42337;BME280;27987;51.468;5.464;2022-08-25T04:25:05;101389.16;;;21.39;71.63
42337;BME280;27987;51.468;5.464;2022-08-25T04:27:32;101382.50;;;21.35;71.12
42337;BME280;27987;51.468;5.464;2022-08-25T04:30:00;101385.97;;;21.35;71.06
42337;BME280;27987;51.468;5.464;2022-08-25T04:32:27;101376.94;;;21.38;70.86
42337;BME280;27987;51.468;5.464;2022-08-25T04:34:54;101374.00;;;21.31;70.25
42337;BME280;27987;51.468;5.464;2022-08-25T04:37:20;101368.44;;;21.34;70.73
42337;BME280;27987;51.468;5.464;2022-08-25T04:39:47;101363.84;;;21.36;70.32
42337;BME280;27987;51.468;5.464;2022-08-25T04:42:14;101358.84;;;21.33;71.08
42337;BME280;27987;51.468;5.464;2022-08-25T04:44:41;101354.81;;;21.29;70.46
42337;BME280;27987;51.468;5.464;2022-08-25T04:47:09;101361.34;;;21.25;70.24
42337;BME280;27987;51.468;5.464;2022-08-25T04:49:36;101357.16;;;21.22;69.46
42337;BME280;27987;51.468;5.464;2022-08-25T04:52:03;101356.75;;;21.37;69.13
42337;BME280;27987;51.468;5.464;2022-08-25T04:54:30;101347.31;;;21.34;69.21
42337;BME280;27987;51.468;5.464;2022-08-25T04:56:56;101352.88;;;21.31;69.78
42337;BME280;27987;51.468;5.464;2022-08-25T04:59:23;101356.47;;;21.30;69.98
42337;BME280;27987;51.468;5.464;2022-08-25T05:01:50;101358.00;;;21.33;68.62
42337;BME280;27987;51.468;5.464;2022-08-25T05:04:28;101356.59;;;21.19;69.23
42337;BME280;27987;51.468;5.464;2022-08-25T05:06:56;101360.22;;;21.37;68.41
42337;BME280;27987;51.468;5.464;2022-08-25T05:09:23;101369.56;;;21.41;67.36
42337;BME280;27987;51.468;5.464;2022-08-25T05:11:49;101369.03;;;21.48;67.52
42337;BME280;27987;51.468;5.464;2022-08-25T05:14:16;101367.88;;;21.40;67.64
42337;BME280;27987;51.468;5.464;2022-08-25T05:16:46;101369.56;;;21.41;67.45
42337;BME280;27987;51.468;5.464;2022-08-25T05:19:13;101370.84;;;21.47;67.05
42337;BME280;27987;51.468;5.464;2022-08-25T05:21:41;101374.28;;;21.57;66.15
42337;BME280;27987;51.468;5.464;2022-08-25T05:24:08;101385.41;;;21.61;67.04
42337;BME280;27987;51.468;5.464;2022-08-25T05:26:39;101385.53;;;21.69;65.60
42337;BME280;27987;51.468;5.464;2022-08-25T05:29:06;101388.34;;;21.68;65.91
42337;BME280;27987;51.468;5.464;2022-08-25T05:31:35;101383.59;;;21.81;65.06
42337;BME280;27987;51.468;5.464;2022-08-25T05:34:05;101384.81;;;21.87;64.97
42337;BME280;27987;51.468;5.464;2022-08-25T05:36:32;101386.16;;;22.00;64.13
42337;BME280;27987;51.468;5.464;2022-08-25T05:39:00;101390.03;;;22.16;63.33
42337;BME280;27987;51.468;5.464;2022-08-25T05:41:28;101390.41;;;22.21;63.11
42337;BME280;27987;51.468;5.464;2022-08-25T05:43:56;101384.56;;;22.17;61.97
42337;BME280;27987;51.468;5.464;2022-08-25T05:46:23;101394.13;;;22.38;62.09
42337;BME280;27987;51.468;5.464;2022-08-25T05:48:50;101389.44;;;22.32;61.06
42337;BME280;27987;51.468;5.464;2022-08-25T05:51:17;101394.09;;;22.48;60.62
42337;BME280;27987;51.468;5.464;2022-08-25T05:53:46;101396.84;;;22.56;60.44
42337;BME280;27987;51.468;5.464;2022-08-25T05:56:15;101397.25;;;22.61;60.12
42337;BME280;27987;51.468;5.464;2022-08-25T05:58:42;101402.34;;;22.72;59.08
42337;BME280;27987;51.468;5.464;2022-08-25T06:01:10;101396.28;;;22.80;58.41
42337;BME280;27987;51.468;5.464;2022-08-25T06:04:01;101403.25;;;22.81;58.58
42337;BME280;27987;51.468;5.464;2022-08-25T06:06:28;101403.44;;;22.97;58.26
42337;BME280;27987;51.468;5.464;2022-08-25T06:08:54;101403.94;;;23.11;58.87
42337;BME280;27987;51.468;5.464;2022-08-25T06:11:24;101394.53;;;23.16;58.39
42337;BME280;27987;51.468;5.464;2022-08-25T06:13:51;101401.63;;;23.34;57.85
42337;BME280;27987;51.468;5.464;2022-08-25T06:16:18;101407.25;;;23.31;57.60
42337;BME280;27987;51.468;5.464;2022-08-25T06:18:45;101399.66;;;23.36;56.63
42337;BME280;27987;51.468;5.464;2022-08-25T06:21:13;101402.69;;;23.59;56.39
42337;BME280;27987;51.468;5.464;2022-08-25T06:23:41;101395.44;;;23.69;56.27
42337;BME280;27987;51.468;5.464;2022-08-25T06:26:09;101394.84;;;23.75;56.08
42337;BME280;27987;51.468;5.464;2022-08-25T06:28:37;101395.81;;;23.92;54.37
42337;BME280;27987;51.468;5.464;2022-08-25T06:31:04;101396.59;;;24.11;54.33
42337;BME280;27987;51.468;5.464;2022-08-25T06:33:31;101396.78;;;24.18;54.55
42337;BME280;27987;51.468;5.464;2022-08-25T06:35:58;101392.84;;;24.30;54.43
42337;BME280;27987;51.468;5.464;2022-08-25T06:38:25;101400.22;;;24.44;54.00
42337;BME280;27987;51.468;5.464;2022-08-25T06:40:54;101393.50;;;24.58;51.54
42337;BME280;27987;51.468;5.464;2022-08-25T06:43:22;101397.84;;;24.76;51.34
42337;BME280;27987;51.468;5.464;2022-08-25T06:45:50;101403.50;;;24.72;49.68
42337;BME280;27987;51.468;5.464;2022-08-25T06:48:17;101400.34;;;24.77;50.43
42337;BME280;27987;51.468;5.464;2022-08-25T06:50:44;101403.72;;;24.87;50.69
42337;BME280;27987;51.468;5.464;2022-08-25T06:53:11;101407.56;;;25.09;50.10
42337;BME280;27987;51.468;5.464;2022-08-25T06:55:38;101403.47;;;25.23;50.41
42337;BME280;27987;51.468;5.464;2022-08-25T06:58:05;101399.81;;;25.33;49.41
42337;BME280;27987;51.468;5.464;2022-08-25T07:00:32;101394.66;;;25.47;49.74
42337;BME280;27987;51.468;5.464;2022-08-25T07:03:01;101392.81;;;25.40;49.08
42337;BME280;27987;51.468;5.464;2022-08-25T07:05:29;101390.50;;;25.61;48.56
42337;BME280;27987;51.468;5.464;2022-08-25T07:07:56;101388.81;;;25.77;47.33
42337;BME280;27987;51.468;5.464;2022-08-25T07:10:24;101380.28;;;25.81;48.41
42337;BME280;27987;51.468;5.464;2022-08-25T07:12:54;101378.63;;;25.88;48.52
42337;BME280;27987;51.468;5.464;2022-08-25T07:15:21;101381.97;;;25.74;49.54
42337;BME280;27987;51.468;5.464;2022-08-25T07:17:48;101383.28;;;26.03;48.25
42337;BME280;27987;51.468;5.464;2022-08-25T07:20:22;101388.28;;;25.89;47.54
42337;BME280;27987;51.468;5.464;2022-08-25T07:22:49;101384.47;;;25.84;48.52
42337;BME280;27987;51.468;5.464;2022-08-25T07:25:16;101378.13;;;26.01;48.69
42337;BME280;27987;51.468;5.464;2022-08-25T07:27:43;101383.63;;;26.00;47.21
42337;BME280;27987;51.468;5.464;2022-08-25T07:30:10;101380.09;;;26.16;47.15
42337;BME280;27987;51.468;5.464;2022-08-25T07:32:40;101373.47;;;26.43;47.75
42337;BME280;27987;51.468;5.464;2022-08-25T07:35:07;101383.22;;;26.67;46.25
42337;BME280;27987;51.468;5.464;2022-08-25T07:37:44;101376.44;;;26.88;45.38
42337;BME280;27987;51.468;5.464;2022-08-25T07:40:14;101370.41;;;26.85;45.54
42337;BME280;27987;51.468;5.464;2022-08-25T07:42:42;101363.75;;;26.90;45.37
42337;BME280;27987;51.468;5.464;2022-08-25T07:45:10;101367.41;;;26.89;45.23
42337;BME280;27987;51.468;5.464;2022-08-25T07:47:37;101378.41;;;26.85;45.59
42337;BME280;27987;51.468;5.464;2022-08-25T07:50:06;101355.78;;;26.81;44.77
42337;BME280;27987;51.468;5.464;2022-08-25T07:52:33;101371.16;;;27.02;44.57
42337;BME280;27987;51.468;5.464;2022-08-25T07:55:02;101368.50;;;27.02;43.45
42337;BME280;27987;51.468;5.464;2022-08-25T07:57:28;101365.84;;;27.40;44.90
42337;BME280;27987;51.468;5.464;2022-08-25T07:59:55;101371.81;;;27.66;44.08
42337;BME280;27987;51.468;5.464;2022-08-25T08:02:23;101365.09;;;27.85;43.46
42337;BME280;27987;51.468;5.464;2022-08-25T08:04:51;101366.56;;;27.87;42.57
42337;BME280;27987;51.468;5.464;2022-08-25T08:07:20;101356.19;;;27.92;43.46
42337;BME280;27987;51.468;5.464;2022-08-25T08:09:47;101364.47;;;28.12;41.82
42337;BME280;27987;51.468;5.464;2022-08-25T08:12:15;101359.09;;;28.27;42.27
42337;BME280;27987;51.468;5.464;2022-08-25T08:14:42;101356.22;;;28.44;42.00
42337;BME280;27987;51.468;5.464;2022-08-25T08:17:19;101343.59;;;28.52;42.06
42337;BME280;27987;51.468;5.464;2022-08-25T08:19:46;101340.50;;;28.70;40.76
42337;BME280;27987;51.468;5.464;2022-08-25T08:22:13;101353.09;;;28.76;40.52
42337;BME280;27987;51.468;5.464;2022-08-25T08:24:41;101359.91;;;29.01;40.99
42337;BME280;27987;51.468;5.464;2022-08-25T08:27:11;101357.88;;;29.03;40.41
42337;BME280;27987;51.468;5.464;2022-08-25T08:29:40;101361.06;;;29.13;40.05
42337;BME280;27987;51.468;5.464;2022-08-25T08:32:09;101364.66;;;29.20;39.85
42337;BME280;27987;51.468;5.464;2022-08-25T08:34:38;101356.47;;;29.28;38.84
42337;BME280;27987;51.468;5.464;2022-08-25T08:37:08;101354.97;;;29.47;39.77
42337;BME280;27987;51.468;5.464;2022-08-25T08:39:36;101357.16;;;29.37;39.85
42337;BME280;27987;51.468;5.464;2022-08-25T08:42:11;101356.34;;;29.37;39.93
42337;BME280;27987;51.468;5.464;2022-08-25T08:45:02;101349.38;;;29.42;40.09
42337;BME280;27987;51.468;5.464;2022-08-25T08:47:41;101353.75;;;29.50;38.88
42337;BME280;27987;51.468;5.464;2022-08-25T08:50:17;101350.22;;;29.43;37.85
42337;BME280;27987;51.468;5.464;2022-08-25T08:52:58;101347.53;;;29.43;39.86
42337;BME280;27987;51.468;5.464;2022-08-25T08:55:31;101350.66;;;29.46;40.78
42337;BME280;27987;51.468;5.464;2022-08-25T08:58:01;101357.63;;;29.47;39.56
42337;BME280;27987;51.468;5.464;2022-08-25T09:00:30;101346.56;;;29.50;40.33
42337;BME280;27987;51.468;5.464;2022-08-25T09:03:03;101343.94;;;29.64;37.70
42337;BME280;27987;51.468;5.464;2022-08-25T09:05:34;101355.44;;;29.86;39.10
42337;BME280;27987;51.468;5.464;2022-08-25T09:08:05;101353.31;;;30.09;40.22
42337;BME280;27987;51.468;5.464;2022-08-25T09:10:37;101353.16;;;30.24;38.91
42337;BME280;27987;51.468;5.464;2022-08-25T09:13:07;101350.47;;;30.24;39.64
42337;BME280;27987;51.468;5.464;2022-08-25T09:15:43;101352.41;;;30.37;39.62
42337;BME280;27987;51.468;5.464;2022-08-25T09:18:37;101351.44;;;30.58;37.94
42337;BME280;27987;51.468;5.464;2022-08-25T09:21:10;101359.69;;;30.50;36.88
42337;BME280;27987;51.468;5.464;2022-08-25T09:23:49;101350.44;;;30.73;36.38
42337;BME280;27987;51.468;5.464;2022-08-25T09:26:27;101347.13;;;30.77;35.11
42337;BME280;27987;51.468;5.464;2022-08-25T09:29:00;101345.72;;;30.81;35.29
42337;BME280;27987;51.468;5.464;2022-08-25T09:31:32;101335.66;;;31.17;35.24
42337;BME280;27987;51.468;5.464;2022-08-25T09:34:01;101346.78;;;31.27;36.34
42337;BME280;27987;51.468;5.464;2022-08-25T09:36:38;101349.88;;;31.51;34.88
42337;BME280;27987;51.468;5.464;2022-08-25T09:39:05;101343.84;;;31.75;32.83
42337;BME280;27987;51.468;5.464;2022-08-25T09:41:41;101343.38;;;31.92;32.38
42337;BME280;27987;51.468;5.464;2022-08-25T09:44:16;101341.28;;;32.46;31.67
42337;BME280;27987;51.468;5.464;2022-08-25T09:47:00;101338.09;;;32.94;32.23
42337;BME280;27987;51.468;5.464;2022-08-25T09:49:33;101341.59;;;33.45;29.92
42337;BME280;27987;51.468;5.464;2022-08-25T09:52:35;101340.44;;;34.45;28.64
42337;BME280;27987;51.468;5.464;2022-08-25T09:55:26;101325.94;;;35.23;28.29
42337;BME280;27987;51.468;5.464;2022-08-25T09:57:57;101323.81;;;35.61;28.26
42337;BME280;27987;51.468;5.464;2022-08-25T10:00:26;101318.56;;;35.42;25.48
42337;BME280;27987;51.468;5.464;2022-08-25T10:03:07;101324.88;;;35.13;27.39
42337;BME280;27987;51.468;5.464;2022-08-25T10:05:40;101323.00;;;35.13;28.90
42337;BME280;27987;51.468;5.464;2022-08-25T10:08:31;101306.81;;;35.25;28.81
42337;BME280;27987;51.468;5.464;2022-08-25T10:11:00;101311.28;;;35.19;26.63
42337;BME280;27987;51.468;5.464;2022-08-25T10:13:38;101307.38;;;34.92;26.07
42337;BME280;27987;51.468;5.464;2022-08-25T10:16:09;101303.03;;;34.90;27.49
42337;BME280;27987;51.468;5.464;2022-08-25T10:18:37;101308.56;;;34.96;27.70
42337;BME280;27987;51.468;5.464;2022-08-25T10:21:07;101303.19;;;35.19;28.76
42337;BME280;27987;51.468;5.464;2022-08-25T10:23:36;101304.19;;;35.42;27.07
42337;BME280;27987;51.468;5.464;2022-08-25T10:26:09;101290.75;;;36.11;25.22
42337;BME280;27987;51.468;5.464;2022-08-25T10:28:40;101288.41;;;36.15;24.85
42337;BME280;27987;51.468;5.464;2022-08-25T10:31:16;101287.84;;;36.01;26.50
42337;BME280;27987;51.468;5.464;2022-08-25T10:33:55;101284.53;;;36.39;25.36
42337;BME280;27987;51.468;5.464;2022-08-25T10:36:31;101277.53;;;35.98;25.55
42337;BME280;27987;51.468;5.464;2022-08-25T10:39:03;101277.16;;;35.77;26.67
42337;BME280;27987;51.468;5.464;2022-08-25T10:41:46;101278.16;;;35.36;27.27
42337;BME280;27987;51.468;5.464;2022-08-25T10:44:19;101267.72;;;35.80;25.07
42337;BME280;27987;51.468;5.464;2022-08-25T10:47:26;101268.91;;;36.13;25.07
42337;BME280;27987;51.468;5.464;2022-08-25T10:50:02;101270.44;;;35.27;25.34
42337;BME280;27987;51.468;5.464;2022-08-25T10:52:31;101267.56;;;35.46;24.37
42337;BME280;27987;51.468;5.464;2022-08-25T10:55:10;101264.06;;;35.86;25.03
42337;BME280;27987;51.468;5.464;2022-08-25T10:57:41;101255.25;;;36.36;25.53
42337;BME280;27987;51.468;5.464;2022-08-25T11:00:13;101254.38;;;36.81;23.48
42337;BME280;27987;51.468;5.464;2022-08-25T11:03:14;101252.47;;;37.38;22.95
42337;BME280;27987;51.468;5.464;2022-08-25T11:05:52;101248.44;;;38.12;21.76
42337;BME280;27987;51.468;5.464;2022-08-25T11:08:24;101251.19;;;38.49;21.64
42337;BME280;27987;51.468;5.464;2022-08-25T11:10:59;101253.88;;;38.12;21.76
42337;BME280;27987;51.468;5.464;2022-08-25T11:13:38;101242.97;;;38.71;21.92
42337;BME280;27987;51.468;5.464;2022-08-25T11:16:09;101243.00;;;38.44;22.02
42337;BME280;27987;51.468;5.464;2022-08-25T11:18:44;101240.53;;;38.75;23.23
42337;BME280;27987;51.468;5.464;2022-08-25T11:21:18;101234.69;;;39.46;21.96
42337;BME280;27987;51.468;5.464;2022-08-25T11:23:51;101225.84;;;39.19;21.79
42337;BME280;27987;51.468;5.464;2022-08-25T11:26:22;101224.91;;;39.51;21.59
42337;BME280;27987;51.468;5.464;2022-08-25T11:28:58;101223.69;;;39.26;23.29
42337;BME280;27987;51.468;5.464;2022-08-25T11:31:26;101223.22;;;38.49;21.84
42337;BME280;27987;51.468;5.464;2022-08-25T11:33:53;101225.44;;;38.95;22.16
42337;BME280;27987;51.468;5.464;2022-08-25T11:36:24;101219.00;;;37.99;22.31
42337;BME280;27987;51.468;5.464;2022-08-25T11:39:02;101215.38;;;38.90;21.91
42337;BME280;27987;51.468;5.464;2022-08-25T11:41:40;101213.59;;;40.20;20.12
42337;BME280;27987;51.468;5.464;2022-08-25T11:44:38;101210.03;;;40.25;20.12
42337;BME280;27987;51.468;5.464;2022-08-25T11:47:19;101213.88;;;40.34;18.16
42337;BME280;27987;51.468;5.464;2022-08-25T11:49:52;101225.50;;;40.96;19.13
42337;BME280;27987;51.468;5.464;2022-08-25T11:52:47;101214.31;;;41.58;17.49
42337;BME280;27987;51.468;5.464;2022-08-25T11:55:20;101219.41;;;41.75;18.64
42337;BME280;27987;51.468;5.464;2022-08-25T11:57:49;101226.19;;;43.05;17.31
42337;BME280;27987;51.468;5.464;2022-08-25T12:00:35;101227.03;;;41.23;16.99
42337;BME280;27987;51.468;5.464;2022-08-25T12:06:15;101213.38;;;41.33;17.78
42337;BME280;27987;51.468;5.464;2022-08-25T12:08:48;101215.72;;;40.90;18.56
42337;BME280;27987;51.468;5.464;2022-08-25T12:11:53;101215.66;;;41.60;17.29
42337;BME280;27987;51.468;5.464;2022-08-25T12:14:50;101210.28;;;40.85;17.84
42337;BME280;27987;51.468;5.464;2022-08-25T12:17:20;101201.34;;;40.43;17.96
42337;BME280;27987;51.468;5.464;2022-08-25T12:19:50;101196.84;;;41.09;19.05
42337;BME280;27987;51.468;5.464;2022-08-25T12:22:55;101199.78;;;42.42;18.47
42337;BME280;27987;51.468;5.464;2022-08-25T12:25:44;101198.16;;;42.41;16.98
42337;BME280;27987;51.468;5.464;2022-08-25T12:28:34;101200.03;;;42.16;17.11
42337;BME280;27987;51.468;5.464;2022-08-25T12:31:15;101189.66;;;42.71;16.94
42337;BME280;27987;51.468;5.464;2022-08-25T12:33:50;101194.25;;;42.76;16.56
42337;BME280;27987;51.468;5.464;2022-08-25T12:36:25;101193.19;;;42.72;16.89
42337;BME280;27987;51.468;5.464;2022-08-25T12:38:53;101189.50;;;41.99;16.29
42337;BME280;27987;51.468;5.464;2022-08-25T12:41:22;101181.34;;;42.58;18.14
42337;BME280;27987;51.468;5.464;2022-08-25T12:43:51;101182.06;;;42.10;16.44
42337;BME280;27987;51.468;5.464;2022-08-25T12:46:36;101181.09;;;41.51;17.42
42337;BME280;27987;51.468;5.464;2022-08-25T12:49:11;101174.28;;;41.53;16.72
42337;BME280;27987;51.468;5.464;2022-08-25T12:51:55;101160.53;;;41.74;16.90
42337;BME280;27987;51.468;5.464;2022-08-25T12:54:29;101173.72;;;42.79;15.71
42337;BME280;27987;51.468;5.464;2022-08-25T12:57:06;101171.13;;;43.36;15.37
42337;BME280;27987;51.468;5.464;2022-08-25T12:59:41;101165.69;;;42.87;15.73
42337;BME280;27987;51.468;5.464;2022-08-25T13:02:35;101163.88;;;42.78;16.87
42337;BME280;27987;51.468;5.464;2022-08-25T13:05:16;101165.28;;;42.22;15.86
42337;BME280;27987;51.468;5.464;2022-08-25T13:08:10;101162.44;;;42.08;16.13
42337;BME280;27987;51.468;5.464;2022-08-25T13:10:45;101159.03;;;42.50;16.48
42337;BME280;27987;51.468;5.464;2022-08-25T13:13:23;101162.84;;;42.98;16.50